createdAt,value
2018-02-27T00:00:42.763Z,0
2018-02-27T00:01:52.686Z,0
2018-02-27T00:03:02.615Z,0
2018-02-27T00:04:12.489Z,0
2018-02-27T00:05:22.630Z,0
2018-02-27T00:06:32.798Z,0
2018-02-27T00:07:42.906Z,0
2018-02-27T00:08:52.531Z,0
2018-02-27T00:10:02.514Z,0
2018-02-27T00:11:12.623Z,0
2018-02-27T00:12:22.759Z,0
2018-02-27T00:13:32.658Z,0
2018-02-27T00:14:42.798Z,0
2018-02-27T00:15:52.675Z,0
2018-02-27T00:17:03.026Z,0
2018-02-27T00:18:12.918Z,0
2018-02-27T00:19:22.843Z,0
2018-02-27T00:20:32.978Z,0
2018-02-27T00:21:43.128Z,0
2018-02-27T00:22:53.010Z,0
2018-02-27T00:24:03.127Z,0
2018-02-27T00:25:12.740Z,0
2018-02-27T00:26:22.940Z,0
2018-02-27T00:27:33.186Z,0
2018-02-27T00:28:43.400Z,0
2018-02-27T00:29:53.765Z,0
2018-02-27T00:31:03.569Z,0
2018-02-27T00:32:13.789Z,0
2018-02-27T00:33:23.551Z,0
2018-02-27T00:34:33.668Z,0
2018-02-27T00:35:43.908Z,0
2018-02-27T00:36:53.795Z,0
2018-02-27T00:38:03.915Z,0
2018-02-27T00:39:13.520Z,0
2018-02-27T00:40:23.747Z,0
2018-02-27T00:41:33.732Z,0
2018-02-27T00:42:43.917Z,0
2018-02-27T00:43:54.042Z,0
2018-02-27T00:45:03.827Z,0
2018-02-27T00:46:14.312Z,0
2018-02-27T00:47:24.462Z,0
2018-02-27T00:48:34.767Z,0
2018-02-27T00:49:45.021Z,0
2018-02-27T00:50:54.952Z,0
2018-02-27T00:52:04.799Z,0
2018-02-27T00:53:14.779Z,0
2018-02-27T00:54:24.935Z,0
2018-02-27T00:55:35.068Z,0
2018-02-27T00:56:44.940Z,0
2018-02-27T00:57:54.844Z,0
2018-02-27T00:59:04.571Z,0
2018-02-27T01:00:14.708Z,0
2018-02-27T01:01:24.590Z,0
2018-02-27T01:02:34.696Z,0
2018-02-27T01:03:44.927Z,0
2018-02-27T01:04:54.794Z,0
2018-02-27T01:06:05.118Z,0
2018-02-27T01:07:15.233Z,0
2018-02-27T01:08:25.355Z,0
2018-02-27T01:09:35.484Z,0
2018-02-27T01:10:45.608Z,0
2018-02-27T01:11:56.112Z,0
2018-02-27T01:13:06.456Z,0
2018-02-27T01:14:17.002Z,0
2018-02-27T01:15:27.297Z,0
2018-02-27T01:16:37.444Z,0
2018-02-27T01:17:47.598Z,0
2018-02-27T01:18:57.770Z,0
2018-02-27T01:20:07.928Z,0
2018-02-27T01:21:18.133Z,0
2018-02-27T01:22:28.341Z,0
2018-02-27T01:23:38.489Z,0
2018-02-27T01:24:48.842Z,0
2018-02-27T01:25:59.301Z,0
2018-02-27T01:27:09.187Z,0
2018-02-27T01:28:19.436Z,0
2018-02-27T01:29:29.754Z,0
2018-02-27T01:30:39.943Z,0
2018-02-27T01:31:50.073Z,0
2018-02-27T01:33:00.333Z,0
2018-02-27T01:34:10.495Z,0
2018-02-27T01:35:20.676Z,0
2018-02-27T01:36:30.271Z,0
2018-02-27T01:37:40.399Z,0
2018-02-27T01:38:50.510Z,0
2018-02-27T01:40:00.648Z,0
2018-02-27T01:41:10.909Z,0
2018-02-27T01:42:21.139Z,0
2018-02-27T01:43:31.357Z,0
2018-02-27T01:44:41.480Z,0
2018-02-27T01:45:51.881Z,0
2018-02-27T01:47:02.089Z,0
2018-02-27T01:48:12.209Z,0
2018-02-27T01:49:22.391Z,0
2018-02-27T01:50:32.311Z,0
2018-02-27T01:51:42.178Z,0
2018-02-27T01:52:52.195Z,0
2018-02-27T01:54:02.391Z,0
2018-02-27T01:55:12.565Z,0
2018-02-27T01:56:22.554Z,0
2018-02-27T01:57:32.688Z,0
2018-02-27T01:58:42.774Z,0
2018-02-27T01:59:52.529Z,0
2018-02-27T02:01:02.690Z,0
2018-02-27T02:02:12.372Z,0
2018-02-27T02:03:22.282Z,0
2018-02-27T02:04:32.451Z,0
2018-02-27T02:05:41.941Z,0
2018-02-27T02:06:52.118Z,0
2018-02-27T02:08:01.988Z,0
2018-02-27T02:09:12.187Z,0
2018-02-27T02:10:22.086Z,0
2018-02-27T02:11:32.329Z,0
2018-02-27T02:12:42.711Z,0
2018-02-27T02:13:52.836Z,0
2018-02-27T02:15:02.476Z,0
2018-02-27T02:16:12.715Z,0
2018-02-27T02:17:22.571Z,0
2018-02-27T02:18:32.484Z,0
2018-02-27T02:19:42.605Z,0
2018-02-27T02:20:52.371Z,0
2018-02-27T02:22:02.479Z,0
2018-02-27T02:23:12.180Z,0
2018-02-27T02:24:22.335Z,0
2018-02-27T02:25:32.488Z,0
2018-02-27T02:26:42.710Z,0
2018-02-27T02:27:52.925Z,0
2018-02-27T02:29:02.461Z,0
2018-02-27T02:30:12.279Z,0
2018-02-27T02:31:22.400Z,0
2018-02-27T02:32:32.537Z,0
2018-02-27T02:33:42.684Z,0
2018-02-27T02:34:52.598Z,0
2018-02-27T02:36:02.460Z,0
2018-02-27T02:37:11.882Z,0
2018-02-27T02:38:21.807Z,0
2018-02-27T02:39:31.910Z,0
2018-02-27T02:40:42.017Z,0
2018-02-27T02:41:52.166Z,0
2018-02-27T02:43:02.303Z,0
2018-02-27T02:44:12.214Z,0
2018-02-27T02:45:22.360Z,0
2018-02-27T02:46:32.795Z,0
2018-02-27T02:47:42.993Z,0
2018-02-27T02:48:53.207Z,0
2018-02-27T02:50:03.043Z,0
2018-02-27T02:51:13.212Z,0
2018-02-27T02:52:23.315Z,0
2018-02-27T02:53:33.436Z,0
2018-02-27T02:54:43.604Z,0
2018-02-27T02:55:53.726Z,0
2018-02-27T02:57:03.410Z,0
2018-02-27T02:58:13.304Z,0
2018-02-27T02:59:23.661Z,0
2018-02-27T03:00:33.515Z,0
2018-02-27T03:01:43.747Z,0
2018-02-27T03:02:53.022Z,0
2018-02-27T03:04:03.168Z,0
2018-02-27T03:05:13.050Z,0
2018-02-27T03:06:23.189Z,0
2018-02-27T03:07:32.433Z,0
2018-02-27T03:08:42.308Z,0
2018-02-27T03:09:52.081Z,0
2018-02-27T03:11:02.352Z,0
2018-02-27T03:12:12.190Z,0
2018-02-27T03:13:23.393Z,0
2018-02-27T03:14:33.318Z,0
2018-02-27T03:15:43.463Z,0
2018-02-27T03:16:53.145Z,0
2018-02-27T03:18:02.468Z,0
2018-02-27T03:19:12.344Z,0
2018-02-27T03:20:22.683Z,0
2018-02-27T03:21:32.683Z,0
2018-02-27T03:22:42.565Z,0
2018-02-27T03:23:52.667Z,0
2018-02-27T03:25:02.504Z,0
2018-02-27T03:26:12.972Z,0
2018-02-27T03:27:23.132Z,0
2018-02-27T03:28:32.899Z,0
2018-02-27T03:29:42.989Z,0
2018-02-27T03:30:53.235Z,0
2018-02-27T03:32:03.492Z,0
2018-02-27T03:33:13.761Z,0
2018-02-27T03:34:24.783Z,0
2018-02-27T03:35:36.503Z,0
2018-02-27T03:36:46.650Z,0
2018-02-27T03:37:56.765Z,0
2018-02-27T03:39:06.667Z,0
2018-02-27T03:40:16.824Z,0
2018-02-27T03:41:26.682Z,0
2018-02-27T03:42:36.839Z,0
2018-02-27T03:43:47.078Z,0
2018-02-27T03:44:57.711Z,0
2018-02-27T03:46:08.033Z,0
2018-02-27T03:47:18.353Z,0
2018-02-27T03:48:28.168Z,0
2018-02-27T03:49:38.367Z,0
2018-02-27T03:50:48.671Z,0
2018-02-27T03:51:58.830Z,0
2018-02-27T03:53:08.881Z,0
2018-02-27T03:54:19.036Z,0
2018-02-27T03:55:29.160Z,0
2018-02-27T03:56:39.886Z,0
2018-02-27T03:57:49.992Z,0
2018-02-27T03:58:59.827Z,0
2018-02-27T04:00:09.973Z,0
2018-02-27T04:01:20.116Z,0
2018-02-27T04:02:31.028Z,0
2018-02-27T04:03:41.932Z,0
2018-02-27T04:04:52.274Z,0
2018-02-27T04:06:02.425Z,0
2018-02-27T04:07:12.618Z,0
2018-02-27T04:08:22.839Z,0
2018-02-27T04:09:33.100Z,0
2018-02-27T04:10:43.417Z,0
2018-02-27T04:11:53.314Z,0
2018-02-27T04:13:03.463Z,0
2018-02-27T04:14:13.565Z,0
2018-02-27T04:15:23.426Z,0
2018-02-27T04:16:33.545Z,0
2018-02-27T04:17:43.751Z,0
2018-02-27T04:18:53.474Z,0
2018-02-27T04:20:03.819Z,0
2018-02-27T04:21:13.686Z,0
2018-02-27T04:22:23.263Z,0
2018-02-27T04:23:33.596Z,0
2018-02-27T04:24:44.344Z,0
2018-02-27T04:25:54.325Z,0
2018-02-27T04:27:04.458Z,0
2018-02-27T04:28:14.347Z,0
2018-02-27T04:29:25.076Z,0
2018-02-27T04:30:34.954Z,0
2018-02-27T04:31:45.153Z,0
2018-02-27T04:32:55.214Z,0
2018-02-27T04:34:05.363Z,0
2018-02-27T04:35:15.468Z,0
2018-02-27T04:36:25.417Z,0
2018-02-27T04:37:35.557Z,0
2018-02-27T04:38:45.480Z,0
2018-02-27T04:39:55.620Z,0
2018-02-27T04:41:05.754Z,0
2018-02-27T04:42:16.098Z,0
2018-02-27T04:43:26.243Z,0
2018-02-27T04:44:35.990Z,0
2018-02-27T04:45:45.848Z,0
2018-02-27T04:46:56.010Z,0
2018-02-27T04:48:05.900Z,0
2018-02-27T04:49:16.246Z,0
2018-02-27T04:50:26.159Z,0
2018-02-27T04:51:36.257Z,0
2018-02-27T04:52:46.117Z,0
2018-02-27T04:53:56.236Z,0
2018-02-27T04:55:07.315Z,0
2018-02-27T04:56:17.176Z,0
2018-02-27T04:57:27.527Z,0
2018-02-27T04:58:37.186Z,0
2018-02-27T04:59:47.315Z,0
2018-02-27T05:00:57.429Z,0
2018-02-27T05:02:07.274Z,0
2018-02-27T05:03:17.294Z,0
2018-02-27T05:04:27.513Z,0
2018-02-27T05:05:37.388Z,0
2018-02-27T05:06:47.552Z,0
2018-02-27T05:07:57.783Z,0
2018-02-27T05:09:07.729Z,0
2018-02-27T05:10:17.672Z,0
2018-02-27T05:11:27.492Z,0
2018-02-27T05:12:37.639Z,0
2018-02-27T05:13:47.562Z,0
2018-02-27T05:14:57.676Z,0
2018-02-27T05:16:07.792Z,0
2018-02-27T05:17:17.926Z,0
2018-02-27T05:18:28.134Z,0
2018-02-27T05:19:38.014Z,0
2018-02-27T05:20:48.157Z,0
2018-02-27T05:21:58.315Z,0
2018-02-27T05:23:08.242Z,0
2018-02-27T05:24:18.066Z,0
2018-02-27T05:25:27.880Z,0
2018-02-27T05:26:37.772Z,0
2018-02-27T05:27:47.909Z,0
2018-02-27T05:28:58.023Z,0
2018-02-27T05:30:08.208Z,0
2018-02-27T05:31:18.178Z,0
2018-02-27T05:32:28.012Z,0
2018-02-27T05:33:37.870Z,0
2018-02-27T05:34:48.187Z,0
2018-02-27T05:35:58.341Z,0
2018-02-27T05:37:08.496Z,0
2018-02-27T05:38:18.097Z,0
2018-02-27T05:39:28.241Z,0
2018-02-27T05:40:38.413Z,0
2018-02-27T05:41:48.626Z,0
2018-02-27T05:42:58.745Z,0
2018-02-27T05:44:08.650Z,0
2018-02-27T05:45:18.795Z,0
2018-02-27T05:46:28.931Z,0
2018-02-27T05:47:39.078Z,0
2018-02-27T05:48:49.239Z,0
2018-02-27T05:49:59.463Z,0
2018-02-27T05:51:09.340Z,0
2018-02-27T05:52:19.557Z,0
2018-02-27T05:53:29.675Z,0
2018-02-27T05:54:39.583Z,0
2018-02-27T05:55:49.117Z,0
2018-02-27T05:56:59.330Z,0
2018-02-27T05:58:09.198Z,5
2018-02-27T05:59:19.350Z,5
2018-02-27T06:00:29.535Z,5
2018-02-27T06:01:39.405Z,5
2018-02-27T06:02:49.339Z,5
2018-02-27T06:03:59.707Z,10
2018-02-27T06:05:09.886Z,10
2018-02-27T06:06:19.804Z,10
2018-02-27T06:07:30.043Z,10
2018-02-27T06:08:39.978Z,15
2018-02-27T06:09:50.136Z,15
2018-02-27T06:11:00.094Z,15
2018-02-27T06:12:09.947Z,15
2018-02-27T06:13:20.077Z,20
2018-02-27T06:14:30.285Z,20
2018-02-27T06:15:40.461Z,20
2018-02-27T06:16:50.686Z,25
2018-02-27T06:18:00.953Z,25
2018-02-27T06:19:12.052Z,25
2018-02-27T06:20:22.181Z,30
2018-02-27T06:21:32.067Z,30
2018-02-27T06:22:42.278Z,30
2018-02-27T06:23:52.601Z,35
2018-02-27T06:25:02.515Z,35
2018-02-27T06:26:12.619Z,40
2018-02-27T06:27:22.748Z,40
2018-02-27T06:28:32.936Z,40
2018-02-27T06:29:43.260Z,40
2018-02-27T06:30:53.429Z,45
2018-02-27T06:32:03.248Z,50
2018-02-27T06:33:13.415Z,50
2018-02-27T06:34:23.297Z,50
2018-02-27T06:35:33.149Z,55
2018-02-27T06:36:43.068Z,55
2018-02-27T06:37:52.706Z,55
2018-02-27T06:39:02.886Z,55
2018-02-27T06:40:12.504Z,55
2018-02-27T06:41:22.621Z,60
2018-02-27T06:42:32.734Z,60
2018-02-27T06:43:42.887Z,60
2018-02-27T06:44:53.121Z,60
2018-02-27T06:46:03.070Z,65
2018-02-27T06:47:13.658Z,70
2018-02-27T06:48:23.607Z,75
2018-02-27T06:49:34.147Z,80
2018-02-27T06:50:46.058Z,85
2018-02-27T06:51:57.053Z,80
2018-02-27T06:53:07.084Z,85
2018-02-27T06:54:17.969Z,90
2018-02-27T06:55:28.108Z,90
2018-02-27T06:56:38.303Z,90
2018-02-27T06:57:48.100Z,95
2018-02-27T06:58:58.563Z,95
2018-02-27T07:00:09.216Z,100
2018-02-27T07:01:20.391Z,105
2018-02-27T07:02:32.247Z,110
2018-02-27T07:03:44.464Z,115
2018-02-27T07:04:56.251Z,120
2018-02-27T07:06:06.522Z,120
2018-02-27T07:07:18.165Z,125
2018-02-27T07:08:28.725Z,130
2018-02-27T07:09:40.131Z,130
2018-02-27T07:10:51.365Z,145
2018-02-27T07:12:01.755Z,150
2018-02-27T07:13:13.531Z,150
2018-02-27T07:14:23.914Z,150
2018-02-27T07:15:34.045Z,155
2018-02-27T07:16:45.080Z,160
2018-02-27T07:17:55.616Z,160
2018-02-27T07:19:05.429Z,170
2018-02-27T07:20:16.387Z,175
2018-02-27T07:21:27.092Z,175
2018-02-27T07:22:37.440Z,185
2018-02-27T07:23:48.467Z,165
2018-02-27T07:24:59.182Z,190
2018-02-27T07:26:09.768Z,170
2018-02-27T07:27:22.175Z,175
2018-02-27T07:28:31.909Z,175
2018-02-27T07:29:42.873Z,190
2018-02-27T07:30:52.795Z,215
2018-02-27T07:32:02.995Z,220
2018-02-27T07:33:13.153Z,190
2018-02-27T07:34:24.241Z,205
2018-02-27T07:35:35.625Z,255
2018-02-27T07:36:45.526Z,235
2018-02-27T07:37:56.097Z,215
2018-02-27T07:39:07.143Z,285
2018-02-27T07:40:17.747Z,295
2018-02-27T07:41:28.355Z,215
2018-02-27T07:42:40.569Z,410
2018-02-27T07:43:50.982Z,380
2018-02-27T07:45:01.332Z,415
2018-02-27T07:46:11.533Z,440
2018-02-27T07:47:22.133Z,425
2018-02-27T07:48:32.857Z,535
2018-02-27T07:49:43.269Z,455
2018-02-27T07:50:53.021Z,410
2018-02-27T07:52:02.650Z,425
2018-02-27T07:53:12.587Z,380
2018-02-27T07:54:22.379Z,335
2018-02-27T07:55:32.508Z,290
2018-02-27T07:56:42.566Z,270
2018-02-27T07:57:52.969Z,260
2018-02-27T07:59:03.108Z,250
2018-02-27T08:00:12.728Z,245
2018-02-27T08:01:23.099Z,245
2018-02-27T08:02:33.244Z,245
2018-02-27T08:03:42.911Z,245
2018-02-27T08:04:53.090Z,240
2018-02-27T08:06:03.225Z,250
2018-02-27T08:07:13.408Z,255
2018-02-27T08:08:23.806Z,250
2018-02-27T08:09:33.946Z,250
2018-02-27T08:10:44.190Z,245
2018-02-27T08:11:54.486Z,240
2018-02-27T08:13:04.878Z,230
2018-02-27T08:14:15.090Z,230
2018-02-27T08:15:25.215Z,240
2018-02-27T08:16:35.016Z,245
2018-02-27T08:17:45.174Z,250
2018-02-27T08:18:55.353Z,260
2018-02-27T08:20:05.975Z,265
2018-02-27T08:21:16.240Z,275
2018-02-27T08:22:26.061Z,280
2018-02-27T08:23:35.979Z,285
2018-02-27T08:24:46.225Z,290
2018-02-27T08:25:55.857Z,300
2018-02-27T08:27:06.195Z,300
2018-02-27T08:28:16.085Z,300
2018-02-27T08:29:26.246Z,305
2018-02-27T08:30:36.820Z,305
2018-02-27T08:31:46.640Z,305
2018-02-27T08:32:56.578Z,310
2018-02-27T08:34:06.458Z,320
2018-02-27T08:35:16.602Z,335
2018-02-27T08:36:26.501Z,345
2018-02-27T08:37:36.402Z,375
2018-02-27T08:38:46.666Z,400
2018-02-27T08:39:56.875Z,425
2018-02-27T08:41:07.032Z,415
2018-02-27T08:42:17.214Z,435
2018-02-27T08:43:27.077Z,540
2018-02-27T08:44:37.219Z,710
2018-02-27T08:45:47.417Z,535
2018-02-27T08:46:57.633Z,595
2018-02-27T08:48:07.803Z,810
2018-02-27T08:49:18.005Z,875
2018-02-27T08:50:28.141Z,720
2018-02-27T08:51:38.326Z,735
2018-02-27T08:52:48.216Z,630
2018-02-27T08:53:58.516Z,705
2018-02-27T08:55:08.819Z,820
2018-02-27T08:56:19.161Z,860
2018-02-27T08:57:29.331Z,745
2018-02-27T08:58:39.481Z,665
2018-02-27T08:59:49.628Z,505
2018-02-27T09:00:59.571Z,495
2018-02-27T09:02:09.729Z,575
2018-02-27T09:03:19.871Z,665
2018-02-27T09:04:30.021Z,700
2018-02-27T09:05:39.828Z,705
2018-02-27T09:06:49.991Z,765
2018-02-27T09:07:59.985Z,880
2018-02-27T09:09:09.293Z,955
2018-02-27T09:10:19.450Z,995
2018-02-27T09:11:29.305Z,1045
2018-02-27T09:12:39.549Z,895
2018-02-27T09:13:50.084Z,850
2018-02-27T09:15:00.260Z,1045
2018-02-27T09:16:10.729Z,1080
2018-02-27T09:17:20.684Z,1150
2018-02-27T09:18:30.560Z,1230
2018-02-27T09:19:40.800Z,1330
2018-02-27T09:20:50.922Z,1470
2018-02-27T09:22:00.572Z,1545
2018-02-27T09:23:10.706Z,1580
2018-02-27T09:24:20.887Z,1540
2018-02-27T09:25:30.815Z,845
2018-02-27T09:26:40.591Z,1540
2018-02-27T09:27:50.514Z,1560
2018-02-27T09:29:04.128Z,1400
2018-02-27T09:30:17.320Z,1400
2018-02-27T09:31:27.579Z,1590
2018-02-27T09:32:37.768Z,1635
2018-02-27T09:33:47.957Z,1450
2018-02-27T09:34:58.246Z,1055
2018-02-27T09:36:08.596Z,1515
2018-02-27T09:37:18.533Z,1255
2018-02-27T09:38:29.042Z,1435
2018-02-27T09:39:38.492Z,1425
2018-02-27T09:40:47.846Z,1370
2018-02-27T09:41:58.014Z,1305
2018-02-27T09:43:08.227Z,1280
2018-02-27T09:44:18.466Z,1295
2018-02-27T09:45:28.615Z,1295
2018-02-27T09:46:38.772Z,1020
2018-02-27T09:47:48.732Z,1025
2018-02-27T09:48:58.974Z,800
2018-02-27T09:50:08.896Z,800
2018-02-27T09:51:19.052Z,700
2018-02-27T09:52:29.575Z,695
2018-02-27T09:53:39.797Z,615
2018-02-27T09:54:50.101Z,995
2018-02-27T09:55:59.892Z,1355
2018-02-27T09:57:10.305Z,1380
2018-02-27T09:58:20.768Z,1065
2018-02-27T09:59:31.674Z,1420
2018-02-27T10:00:42.068Z,1410
2018-02-27T10:01:52.989Z,1170
2018-02-27T10:03:03.371Z,1585
2018-02-27T10:04:14.353Z,1330
2018-02-27T10:05:24.506Z,1540
2018-02-27T10:06:34.289Z,1640
2018-02-27T10:07:44.741Z,1745
2018-02-27T10:08:54.690Z,1780
2018-02-27T10:10:04.930Z,1840
2018-02-27T10:11:15.698Z,1875
2018-02-27T10:12:25.211Z,1785
2018-02-27T10:13:35.483Z,1355
2018-02-27T10:14:45.685Z,1565
2018-02-27T10:15:55.572Z,1650
2018-02-27T10:17:05.734Z,1445
2018-02-27T10:18:16.168Z,1405
2018-02-27T10:19:26.364Z,1485
2018-02-27T10:20:36.501Z,1480
2018-02-27T10:23:01.747Z,895
2018-02-27T10:24:13.093Z,795
2018-02-27T10:25:24.211Z,975
2018-02-27T10:26:39.700Z,880
2018-02-27T10:27:51.089Z,935
2018-02-27T10:30:19.554Z,1370
2018-02-27T10:31:32.300Z,1650
2018-02-27T10:32:42.409Z,1275
2018-02-27T10:33:54.693Z,1205
2018-02-27T10:35:05.040Z,1035
2018-02-27T10:36:17.141Z,1305
2018-02-27T10:37:32.395Z,1080
2018-02-27T10:38:43.708Z,960
2018-02-27T10:39:53.950Z,1330
2018-02-27T10:42:20.506Z,1760
2018-02-27T10:43:30.740Z,2215
2018-02-27T10:44:40.913Z,2125
2018-02-27T10:45:51.095Z,1635
2018-02-27T10:47:01.530Z,1575
2018-02-27T10:48:11.501Z,1990
2018-02-27T10:49:21.982Z,1875
2018-02-27T10:50:32.470Z,1810
2018-02-27T10:51:42.658Z,1990
2018-02-27T10:52:53.048Z,1615
2018-02-27T10:54:02.724Z,1545
2018-02-27T10:55:12.913Z,2150
2018-02-27T10:56:23.100Z,2105
2018-02-27T10:57:33.277Z,1785
2018-02-27T10:58:43.189Z,1535
2018-02-27T10:59:53.340Z,1180
2018-02-27T11:01:03.287Z,1770
2018-02-27T11:02:13.429Z,1800
2018-02-27T11:03:23.249Z,1745
2018-02-27T11:04:33.425Z,1815
2018-02-27T11:05:43.673Z,1885
2018-02-27T11:06:54.017Z,1725
2018-02-27T11:08:04.217Z,1465
2018-02-27T11:09:14.149Z,1180
2018-02-27T11:10:24.289Z,910
2018-02-27T11:11:35.253Z,1180
2018-02-27T11:12:46.144Z,1160
2018-02-27T11:13:56.572Z,1415
2018-02-27T11:15:06.641Z,1485
2018-02-27T11:16:17.132Z,1470
2018-02-27T11:17:27.541Z,1450
2018-02-27T11:18:37.754Z,1515
2018-02-27T11:19:48.592Z,1710
2018-02-27T11:20:58.986Z,1745
2018-02-27T11:22:09.442Z,1775
2018-02-27T11:23:20.068Z,1560
2018-02-27T11:24:30.284Z,1380
2018-02-27T11:25:40.767Z,1175
2018-02-27T11:26:51.270Z,1180
2018-02-27T11:28:02.401Z,1385
2018-02-27T11:29:12.902Z,1575
2018-02-27T11:30:23.701Z,1330
2018-02-27T11:31:34.213Z,1480
2018-02-27T11:32:45.252Z,1660
2018-02-27T11:33:55.356Z,1715
2018-02-27T11:35:05.417Z,1810
2018-02-27T11:36:18.986Z,1920
2018-02-27T11:37:30.311Z,2035
2018-02-27T11:38:40.788Z,2075
2018-02-27T11:39:51.340Z,2100
2018-02-27T11:41:01.791Z,1975
2018-02-27T11:42:11.456Z,1940
2018-02-27T11:43:21.380Z,1830
2018-02-27T11:44:31.166Z,1790
2018-02-27T11:45:41.509Z,1715
2018-02-27T11:46:52.150Z,1605
2018-02-27T11:48:02.224Z,1450
2018-02-27T11:49:12.440Z,1480
2018-02-27T11:50:22.523Z,1610
2018-02-27T11:51:33.217Z,1680
2018-02-27T11:52:43.124Z,1840
2018-02-27T11:53:53.436Z,1960
2018-02-27T11:55:03.778Z,2070
2018-02-27T11:56:14.400Z,2100
2018-02-27T11:57:24.317Z,2140
2018-02-27T11:58:38.360Z,2085
2018-02-27T12:01:05.545Z,2080
2018-02-27T12:02:20.948Z,2150
2018-02-27T12:03:34.177Z,2175
2018-02-27T12:04:45.174Z,2150
2018-02-27T12:05:54.867Z,2045
2018-02-27T12:07:05.690Z,1965
2018-02-27T12:08:18.095Z,1950
2018-02-27T12:09:29.008Z,1955
2018-02-27T12:10:39.230Z,1945
2018-02-27T12:11:49.497Z,1920
2018-02-27T12:13:00.696Z,1850
2018-02-27T12:14:10.756Z,1440
2018-02-27T12:16:42.904Z,2045
2018-02-27T12:17:53.315Z,1765
2018-02-27T12:19:03.431Z,1410
2018-02-27T12:21:28.599Z,1585
2018-02-27T12:22:38.841Z,1685
2018-02-27T12:23:48.350Z,1680
2018-02-27T12:24:58.942Z,2130
2018-02-27T12:26:09.487Z,1785
2018-02-27T12:27:19.704Z,1775
2018-02-27T12:28:29.633Z,1965
2018-02-27T12:29:40.034Z,1960
2018-02-27T12:30:50.213Z,1830
2018-02-27T12:32:00.336Z,1765
2018-02-27T12:33:11.230Z,1660
2018-02-27T12:34:21.744Z,1695
2018-02-27T12:35:31.979Z,1680
2018-02-27T12:36:42.105Z,1790
2018-02-27T12:37:52.122Z,1870
2018-02-27T12:39:02.324Z,1895
2018-02-27T12:40:15.882Z,1880
2018-02-27T12:41:25.936Z,1815
2018-02-27T12:42:36.236Z,1810
2018-02-27T12:43:46.420Z,1740
2018-02-27T12:44:57.255Z,1675
2018-02-27T12:46:07.677Z,1715
2018-02-27T12:47:17.335Z,1795
2018-02-27T12:48:27.136Z,1850
2018-02-27T12:49:37.811Z,1850
2018-02-27T12:50:47.922Z,1790
2018-02-27T12:51:58.080Z,1785
2018-02-27T12:53:08.940Z,1800
2018-02-27T12:54:19.373Z,1805
2018-02-27T12:55:30.490Z,1850
2018-02-27T12:56:40.720Z,1820
2018-02-27T12:57:51.246Z,1785
2018-02-27T12:59:01.445Z,1745
2018-02-27T13:00:11.348Z,1710
2018-02-27T13:01:21.154Z,1695
2018-02-27T13:02:31.815Z,1740
2018-02-27T13:03:42.387Z,1835
2018-02-27T13:04:52.817Z,1920
2018-02-27T13:06:03.277Z,1970
2018-02-27T13:07:13.808Z,1970
2018-02-27T13:08:23.996Z,1960
2018-02-27T13:09:34.222Z,1985
2018-02-27T13:10:44.785Z,2005
2018-02-27T13:11:58.460Z,1995
2018-02-27T13:13:08.703Z,1945
2018-02-27T13:14:18.317Z,1680
2018-02-27T13:15:28.347Z,1870
2018-02-27T13:16:38.833Z,1565
2018-02-27T13:17:49.212Z,1640
2018-02-27T13:18:59.446Z,1675
2018-02-27T13:20:09.588Z,1760
2018-02-27T13:21:20.754Z,1350
2018-02-27T13:22:31.555Z,1460
2018-02-27T13:23:41.708Z,1480
2018-02-27T13:24:52.144Z,1455
2018-02-27T13:26:02.207Z,1485
2018-02-27T13:27:12.891Z,1210
2018-02-27T13:28:24.314Z,1240
2018-02-27T13:29:34.766Z,1075
2018-02-27T13:30:45.320Z,1075
2018-02-27T13:31:56.751Z,1165
2018-02-27T13:33:07.162Z,1350
2018-02-27T13:34:17.794Z,1380
2018-02-27T13:35:28.589Z,1515
2018-02-27T13:36:39.448Z,1575
2018-02-27T13:37:49.938Z,1595
2018-02-27T13:39:00.596Z,1605
2018-02-27T13:40:10.790Z,1565
2018-02-27T13:41:21.472Z,1525
2018-02-27T13:42:32.123Z,1535
2018-02-27T13:43:41.892Z,1635
2018-02-27T13:44:52.098Z,1655
2018-02-27T13:46:02.306Z,1570
2018-02-27T13:47:12.259Z,1480
2018-02-27T13:48:22.454Z,1485
2018-02-27T13:49:35.133Z,1550
2018-02-27T13:50:45.684Z,1615
2018-02-27T13:51:56.111Z,1600
2018-02-27T13:53:06.496Z,1520
2018-02-27T13:54:16.529Z,1445
2018-02-27T13:55:26.982Z,1450
2018-02-27T13:56:37.602Z,1480
2018-02-27T13:57:47.656Z,1480
2018-02-27T13:58:58.448Z,1485
2018-02-27T14:00:08.722Z,1540
2018-02-27T14:01:18.691Z,1605
2018-02-27T14:02:29.495Z,1580
2018-02-27T14:03:39.999Z,1480
2018-02-27T14:04:50.208Z,1430
2018-02-27T14:06:00.466Z,1440
2018-02-27T14:07:10.661Z,1445
2018-02-27T14:08:21.312Z,1415
2018-02-27T14:09:31.748Z,1360
2018-02-27T14:10:42.202Z,1340
2018-02-27T14:11:52.566Z,1355
2018-02-27T14:13:03.020Z,1370
2018-02-27T14:14:13.230Z,1355
2018-02-27T14:15:23.446Z,1355
2018-02-27T14:16:33.153Z,1360
2018-02-27T14:17:43.340Z,1300
2018-02-27T14:18:54.541Z,1285
2018-02-27T14:20:04.922Z,1345
2018-02-27T14:21:14.878Z,1400
2018-02-27T14:22:25.469Z,1330
2018-02-27T14:23:36.317Z,1255
2018-02-27T14:24:46.890Z,1295
2018-02-27T14:25:57.135Z,1315
2018-02-27T14:27:08.742Z,1315
2018-02-27T14:28:18.662Z,1245
2018-02-27T14:29:29.174Z,1160
2018-02-27T14:30:40.031Z,1155
2018-02-27T14:31:49.708Z,1180
2018-02-27T14:32:59.941Z,1200
2018-02-27T14:34:11.095Z,1210
2018-02-27T14:35:21.908Z,1255
2018-02-27T14:36:33.754Z,1265
2018-02-27T14:37:45.001Z,1205
2018-02-27T14:38:56.119Z,1070
2018-02-27T14:40:06.858Z,990
2018-02-27T14:41:18.684Z,1010
2018-02-27T14:42:29.488Z,1090
2018-02-27T14:43:40.670Z,1145
2018-02-27T14:44:52.551Z,1230
2018-02-27T14:46:02.428Z,1190
2018-02-27T14:47:12.600Z,945
2018-02-27T14:48:23.116Z,910
2018-02-27T14:49:33.492Z,685
2018-02-27T14:50:43.840Z,390
2018-02-27T14:51:54.496Z,635
2018-02-27T14:53:05.074Z,1015
2018-02-27T14:54:15.292Z,295
2018-02-27T14:55:25.880Z,290
2018-02-27T14:56:36.074Z,290
2018-02-27T14:57:46.640Z,295
2018-02-27T14:58:57.278Z,330
2018-02-27T15:00:07.182Z,300
2018-02-27T15:01:19.064Z,275
2018-02-27T15:02:29.417Z,275
2018-02-27T15:03:40.494Z,275
2018-02-27T15:04:51.603Z,260
2018-02-27T15:06:02.011Z,245
2018-02-27T15:07:12.797Z,230
2018-02-27T15:08:23.609Z,215
2018-02-27T15:09:34.359Z,210
2018-02-27T15:10:45.202Z,200
2018-02-27T15:11:56.299Z,195
2018-02-27T15:13:06.779Z,185
2018-02-27T15:14:17.780Z,175
2018-02-27T15:15:28.830Z,170
2018-02-27T15:16:39.742Z,160
2018-02-27T15:17:51.337Z,155
2018-02-27T15:19:03.879Z,150
2018-02-27T15:20:15.949Z,135
2018-02-27T15:21:26.860Z,125
2018-02-27T15:22:37.885Z,115
2018-02-27T15:23:51.936Z,105
2018-02-27T15:25:02.992Z,105
2018-02-27T15:26:14.284Z,105
2018-02-27T15:27:24.879Z,110
2018-02-27T15:28:35.565Z,115
2018-02-27T15:29:47.768Z,135
2018-02-27T15:30:59.974Z,140
2018-02-27T15:32:11.627Z,135
2018-02-27T15:33:23.342Z,130
2018-02-27T15:34:35.994Z,125
2018-02-27T15:35:48.256Z,125
2018-02-27T15:36:59.573Z,130
2018-02-27T15:38:12.059Z,135
2018-02-27T15:39:23.905Z,145
2018-02-27T15:40:34.253Z,140
2018-02-27T15:41:45.835Z,140
2018-02-27T15:42:56.826Z,140
2018-02-27T15:44:07.244Z,145
2018-02-27T15:45:20.483Z,140
2018-02-27T15:46:31.320Z,135
2018-02-27T15:47:42.701Z,125
2018-02-27T15:48:55.222Z,115
2018-02-27T15:50:05.992Z,115
2018-02-27T15:51:17.900Z,110
2018-02-27T15:52:30.987Z,115
2018-02-27T15:53:42.426Z,115
2018-02-27T15:54:57.166Z,115
2018-02-27T15:56:11.085Z,110
2018-02-27T15:57:21.996Z,100
2018-02-27T15:58:34.103Z,100
2018-02-27T15:59:45.638Z,95
2018-02-27T16:00:56.733Z,95
2018-02-27T16:02:09.435Z,90
2018-02-27T16:03:21.823Z,85
2018-02-27T16:04:34.312Z,85
2018-02-27T16:05:45.104Z,80
2018-02-27T16:06:56.316Z,80
2018-02-27T16:08:07.359Z,80
2018-02-27T16:09:33.356Z,70
2018-02-27T16:10:45.811Z,65
2018-02-27T16:12:05.107Z,60
2018-02-27T16:13:16.206Z,60
2018-02-27T16:14:27.262Z,60
2018-02-27T16:15:38.264Z,55
2018-02-27T16:16:51.399Z,55
2018-02-27T16:18:04.477Z,50
2018-02-27T16:19:17.309Z,50
2018-02-27T16:20:29.464Z,50
2018-02-27T16:21:40.498Z,45
2018-02-27T16:22:52.977Z,45
2018-02-27T16:24:03.407Z,40
2018-02-27T16:25:14.889Z,40
2018-02-27T16:26:28.368Z,40
2018-02-27T16:27:40.821Z,40
2018-02-27T16:28:51.834Z,40
2018-02-27T16:30:03.678Z,35
2018-02-27T16:32:45.087Z,30
2018-02-27T16:33:57.039Z,30
2018-02-27T16:35:09.224Z,25
2018-02-27T16:36:23.309Z,25
2018-02-27T16:37:48.650Z,20